Sanibel, Florida
Current Conditions -  °F | °C
As of 12:53 AM on Friday 31 Oct 2014 (Local Time) from KFMY Reporting Station
Broken Clouds Broken Clouds  
Wind Chill: 73°   Ceiling: 11000
Heat Index: 73°   Visibility: 10mi
Dew Point: 69°   Wind: 0mph
Humidity: 87%   Direction: NA
Pressure: 29.88"   Gusts: NA
Location:  26.44°N, 82.07°W
Report Text: KFMY 310453Z 00000KT 10SM BKN110 23/21 A2988 RMK AO2 SLP120 T02280206 403000194
Loading
Personal Weather Stations






























Interactive Weather Map
Tropical Storm Tracking
New forecast layout! Learn more

10-Day Weather Forecast

Advertisements
Track Severe Weather on mobile